Terminal Aerodrome Forecast
Issued by NWS Grand Forks, ND

Home | Current Version | Previous Version | Graphics & Text | Print | Product List | Glossary On
Versions: 1 2 3 4 5 6 7 8 9 10 11 12
422
FTUS43 KFGF 180520
TAFGFK
TAF
KGFK 180520Z 1806/1906 05010KT P6SM BKN200
     FM181200 03010KT P6SM BKN250
     FM190100 02005KT P6SM SCT200=

USA.gov is the U.S. government's official web portal to all federal, state and local government web resources and services.